createdAt,value
2018-04-20T00:00:43.013Z,90.80
2018-04-20T00:03:12.118Z,91.10
2018-04-20T00:05:40.403Z,91.20
2018-04-20T00:08:09.444Z,91.10
2018-04-20T00:10:37.722Z,91.00
2018-04-20T00:13:06.001Z,91.30
2018-04-20T00:15:34.284Z,91.20
2018-04-20T00:18:02.555Z,91.30
2018-04-20T00:20:30.841Z,92.10
2018-04-20T00:22:59.111Z,91.70
2018-04-20T00:25:27.415Z,91.50
2018-04-20T00:27:56.467Z,91.50
2018-04-20T00:30:24.744Z,91.20
2018-04-20T00:32:53.102Z,91.60
2018-04-20T00:35:21.379Z,91.60
2018-04-20T00:37:49.659Z,92.10
2018-04-20T00:40:17.949Z,91.70
2018-04-20T00:42:46.215Z,91.40
2018-04-20T00:45:14.520Z,91.30
2018-04-20T00:47:42.769Z,91.20
2018-04-20T00:50:11.056Z,91.40
2018-04-20T00:52:39.328Z,90.90
2018-04-20T00:55:07.610Z,90.80
2018-04-20T00:57:35.883Z,91.00
2018-04-20T01:00:04.163Z,91.30
2018-04-20T01:02:32.427Z,91.20
2018-04-20T01:05:00.707Z,91.30
2018-04-20T01:07:28.978Z,91.40
2018-04-20T01:09:57.272Z,91.30
2018-04-20T01:12:25.564Z,91.20
2018-04-20T01:14:53.815Z,91.60
2018-04-20T01:17:22.106Z,91.50
2018-04-20T01:19:51.142Z,92.70
2018-04-20T01:22:19.458Z,92.70
2018-04-20T01:24:47.733Z,92.50
2018-04-20T01:27:16.014Z,92.50
2018-04-20T01:29:44.287Z,92.00
2018-04-20T01:32:12.583Z,92.20
2018-04-20T01:34:41.618Z,91.90
2018-04-20T01:37:09.903Z,91.90
2018-04-20T01:39:38.176Z,92.20
2018-04-20T01:42:07.229Z,92.40
2018-04-20T01:44:35.505Z,92.30
2018-04-20T01:47:03.787Z,92.20
2018-04-20T01:49:32.060Z,92.40
2018-04-20T01:52:00.348Z,92.60
2018-04-20T01:54:28.624Z,92.60
2018-04-20T01:56:56.917Z,92.80
2018-04-20T01:59:25.222Z,92.90
2018-04-20T02:01:54.242Z,93.00
2018-04-20T02:04:22.512Z,92.90
2018-04-20T02:06:50.796Z,92.90
2018-04-20T02:09:19.066Z,92.80
2018-04-20T02:11:47.346Z,92.90
2018-04-20T02:14:15.623Z,92.90
2018-04-20T02:16:43.903Z,92.50
2018-04-20T02:19:12.179Z,92.10
2018-04-20T02:21:40.462Z,92.40
2018-04-20T02:24:08.736Z,92.40
2018-04-20T02:26:37.019Z,92.50
2018-04-20T02:29:05.287Z,92.60
2018-04-20T02:31:33.573Z,92.80
2018-04-20T02:34:01.840Z,92.80
2018-04-20T02:36:30.127Z,92.70
2018-04-20T02:38:58.391Z,92.60
2018-04-20T02:41:26.674Z,92.80
2018-04-20T02:43:54.952Z,92.40
2018-04-20T02:46:23.235Z,92.40
2018-04-20T02:48:51.506Z,92.80
2018-04-20T02:51:19.787Z,92.90
2018-04-20T02:53:48.055Z,92.40
2018-04-20T02:56:16.338Z,92.90
2018-04-20T02:58:44.607Z,92.70
2018-04-20T03:01:12.897Z,93.10
2018-04-20T03:03:41.163Z,93.40
2018-04-20T03:06:09.457Z,93.50
2018-04-20T03:08:37.739Z,93.10
2018-04-20T03:11:06.800Z,93.80
2018-04-20T03:13:35.834Z,93.60
2018-04-20T03:16:04.874Z,93.10
2018-04-20T03:18:33.204Z,93.10
2018-04-20T03:21:01.439Z,93.10
2018-04-20T03:23:29.731Z,92.80
2018-04-20T03:25:57.999Z,93.80
2018-04-20T03:28:26.282Z,93.70
2018-04-20T03:30:54.557Z,93.60
2018-04-20T03:33:22.844Z,93.50
2018-04-20T03:35:51.874Z,93.60
2018-04-20T03:38:20.164Z,93.60
2018-04-20T03:40:48.433Z,93.70
2018-04-20T03:43:16.715Z,93.60
2018-04-20T03:45:45.747Z,94.10
2018-04-20T03:48:14.802Z,94.50
2018-04-20T03:50:43.066Z,94.50
2018-04-20T03:53:11.357Z,94.50
2018-04-20T03:55:39.622Z,94.20
2018-04-20T03:58:07.911Z,93.60
2018-04-20T04:00:36.952Z,94.80
2018-04-20T04:03:05.290Z,94.90
2018-04-20T04:05:33.559Z,95.60
2018-04-20T04:08:01.851Z,95.50
2018-04-20T04:10:30.116Z,95.40
2018-04-20T04:12:58.407Z,95.30
2018-04-20T04:15:27.447Z,94.60
2018-04-20T04:18:07.551Z,94.60
2018-04-20T04:20:42.603Z,95.00
2018-04-20T04:23:22.867Z,95.00
2018-04-20T04:26:03.830Z,94.30
2018-04-20T04:28:32.116Z,94.20
2018-04-20T04:31:00.383Z,94.20
2018-04-20T04:33:28.668Z,94.30
2018-04-20T04:35:56.954Z,95.10
2018-04-20T04:38:25.235Z,95.10
2018-04-20T04:40:53.502Z,94.90
2018-04-20T04:43:21.787Z,94.90
2018-04-20T04:45:50.059Z,94.70
2018-04-20T04:48:18.347Z,94.40
2018-04-20T04:50:46.614Z,94.40
2018-04-20T04:53:14.905Z,94.50
2018-04-20T04:55:43.185Z,95.30
2018-04-20T04:58:11.473Z,95.50
2018-04-20T05:00:39.804Z,95.10
2018-04-20T05:03:08.084Z,94.50
2018-04-20T05:05:36.350Z,94.40
2018-04-20T05:08:04.641Z,95.20
2018-04-20T05:10:32.902Z,95.80
2018-04-20T05:13:01.186Z,95.70
2018-04-20T05:15:29.458Z,95.80
2018-04-20T05:17:57.765Z,95.30
2018-04-20T05:20:26.028Z,95.40
2018-04-20T05:22:54.355Z,95.40
2018-04-20T05:25:22.634Z,95.80
2018-04-20T05:27:50.952Z,96.30
2018-04-20T05:30:19.219Z,96.20
2018-04-20T05:32:47.533Z,96.10
2018-04-20T05:35:15.767Z,95.70
2018-04-20T05:37:44.050Z,95.30
2018-04-20T05:40:12.334Z,95.80
2018-04-20T05:42:40.613Z,95.90
2018-04-20T05:45:08.874Z,95.40
2018-04-20T05:47:37.156Z,95.40
2018-04-20T05:50:05.424Z,95.20
2018-04-20T05:52:33.688Z,94.40
2018-04-20T05:55:01.970Z,93.70
2018-04-20T05:57:30.225Z,93.50
2018-04-20T05:59:58.508Z,92.60
2018-04-20T06:02:26.774Z,91.90
2018-04-20T06:04:55.082Z,92.60
2018-04-20T06:07:23.361Z,91.60
2018-04-20T06:09:51.624Z,90.40
2018-04-20T06:12:19.884Z,90.50
2018-04-20T06:14:48.161Z,90.10
2018-04-20T06:17:17.203Z,87.10
2018-04-20T06:19:46.236Z,85.30
2018-04-20T06:22:14.504Z,85.10
2018-04-20T06:24:42.785Z,85.10
2018-04-20T06:27:11.053Z,84.40
2018-04-20T06:29:39.335Z,83.70
2018-04-20T06:32:07.614Z,83.70
2018-04-20T06:34:35.895Z,82.70
2018-04-20T06:37:04.168Z,82.10
2018-04-20T06:39:32.455Z,81.90
2018-04-20T06:42:00.718Z,78.90
2018-04-20T06:44:29.001Z,76.80
2018-04-20T06:46:57.271Z,73.70
2018-04-20T06:49:25.556Z,74.30
2018-04-20T06:51:53.824Z,71.70
2018-04-20T06:54:22.103Z,70.70
2018-04-20T06:56:50.424Z,69.80
2018-04-20T06:59:18.686Z,68.70
2018-04-20T07:01:47.788Z,69.50
2018-04-20T07:04:16.831Z,66.70
2018-04-20T07:06:45.099Z,66.70
2018-04-20T07:09:19.059Z,69.20
2018-04-20T07:11:48.108Z,65.30
2018-04-20T07:14:16.397Z,65.30
2018-04-20T07:16:44.662Z,64.20
2018-04-20T07:19:12.950Z,66.70
2018-04-20T07:21:41.226Z,64.80
2018-04-20T07:24:09.512Z,64.20
2018-04-20T07:26:38.551Z,65.80
2018-04-20T07:29:06.837Z,65.80
2018-04-20T07:31:35.113Z,62.10
2018-04-20T07:34:03.391Z,62.00
2018-04-20T07:36:31.659Z,62.20
2018-04-20T07:38:59.938Z,59.60
2018-04-20T07:41:28.223Z,60.80
2018-04-20T07:43:56.483Z,60.00
2018-04-20T07:46:24.752Z,56.60
2018-04-20T07:48:53.036Z,57.60
2018-04-20T07:51:21.300Z,58.00
2018-04-20T07:53:49.580Z,55.30
2018-04-20T07:56:17.851Z,56.60
2018-04-20T07:58:46.111Z,54.30
2018-04-20T08:01:14.393Z,54.50
2018-04-20T08:03:42.671Z,55.30
2018-04-20T08:06:10.954Z,53.70
2018-04-20T08:08:39.216Z,55.20
2018-04-20T08:11:07.487Z,56.80
2018-04-20T08:13:35.742Z,56.20
2018-04-20T08:16:04.023Z,54.70
2018-04-20T08:18:32.288Z,55.70
2018-04-20T08:21:01.338Z,50.00
2018-04-20T08:23:29.594Z,50.00
2018-04-20T08:25:57.872Z,49.10
2018-04-20T08:28:26.131Z,49.70
2018-04-20T08:30:54.410Z,50.20
2018-04-20T08:33:22.671Z,50.00
2018-04-20T08:35:50.955Z,48.00
2018-04-20T08:38:19.213Z,47.30
2018-04-20T08:40:47.491Z,46.60
2018-04-20T08:43:15.753Z,46.00
2018-04-20T08:45:44.799Z,44.60
2018-04-20T08:48:13.064Z,44.50
2018-04-20T08:50:41.339Z,44.20
2018-04-20T08:53:09.603Z,44.70
2018-04-20T08:55:37.914Z,44.20
2018-04-20T08:58:06.176Z,43.60
2018-04-20T09:00:34.455Z,43.50
2018-04-20T09:03:02.713Z,44.90
2018-04-20T09:05:30.994Z,43.60
2018-04-20T09:07:59.259Z,45.00
2018-04-20T09:10:27.550Z,44.20
2018-04-20T09:12:55.824Z,42.90
2018-04-20T09:15:24.099Z,43.20
2018-04-20T09:17:52.378Z,43.50
2018-04-20T09:20:20.646Z,43.80
2018-04-20T09:22:48.918Z,42.80
2018-04-20T09:25:17.207Z,42.80
2018-04-20T09:27:45.467Z,40.50
2018-04-20T09:30:13.742Z,42.40
2018-04-20T09:32:42.988Z,41.40
2018-04-20T09:35:11.318Z,41.40
2018-04-20T09:37:39.581Z,41.10
2018-04-20T09:40:07.863Z,39.60
2018-04-20T09:42:36.139Z,41.10
2018-04-20T09:45:04.419Z,40.80
2018-04-20T09:47:32.729Z,41.60
2018-04-20T09:50:01.794Z,40.30
2018-04-20T09:52:30.034Z,40.20
2018-04-20T09:54:58.391Z,40.40
2018-04-20T09:57:26.710Z,41.70
2018-04-20T09:59:54.983Z,40.00
2018-04-20T10:02:29.262Z,40.20
2018-04-20T10:04:57.777Z,39.70
2018-04-20T10:07:26.246Z,42.70
2018-04-20T10:09:54.499Z,38.70
2018-04-20T10:12:22.747Z,43.50
2018-04-20T10:14:50.987Z,40.00
2018-04-20T10:17:19.230Z,42.50
2018-04-20T10:19:48.231Z,41.40
2018-04-20T10:22:16.480Z,41.30
2018-04-20T10:24:44.718Z,39.70
2018-04-20T10:27:13.735Z,42.40
2018-04-20T10:29:41.977Z,42.40
2018-04-20T10:32:11.344Z,39.40
2018-04-20T10:34:40.574Z,41.00
2018-04-20T10:37:09.591Z,41.70
2018-04-20T10:39:37.827Z,41.70
2018-04-20T10:42:06.071Z,39.70
2018-04-20T10:44:34.320Z,41.50
2018-04-20T10:47:02.567Z,38.90
2018-04-20T10:49:31.571Z,41.60
2018-04-20T10:51:59.819Z,41.50
2018-04-20T10:54:28.049Z,42.00
2018-04-20T10:56:56.322Z,39.80
2018-04-20T10:59:24.559Z,39.70
2018-04-20T11:01:53.581Z,40.00
2018-04-20T11:04:21.823Z,40.00
2018-04-20T11:06:50.842Z,40.80
2018-04-20T11:09:19.082Z,40.80
2018-04-20T11:11:48.483Z,40.50
2018-04-20T11:14:16.691Z,40.40
2018-04-20T11:16:44.942Z,42.30
2018-04-20T11:19:14.007Z,37.00
2018-04-20T11:21:42.261Z,36.90
2018-04-20T11:24:10.492Z,37.60
2018-04-20T11:26:38.742Z,39.50
2018-04-20T11:29:07.742Z,40.20
2018-04-20T11:31:36.755Z,38.50
2018-04-20T11:34:04.990Z,38.40
2018-04-20T11:36:33.236Z,42.80
2018-04-20T11:39:01.462Z,43.00
2018-04-20T11:41:30.480Z,38.00
2018-04-20T11:43:58.716Z,38.00
2018-04-20T11:46:27.736Z,44.50
2018-04-20T11:48:55.963Z,44.50
2018-04-20T11:51:24.207Z,40.10
2018-04-20T11:53:52.531Z,39.20
2018-04-20T11:56:20.696Z,40.40
2018-04-20T11:58:48.931Z,37.90
2018-04-20T12:01:17.174Z,37.40
2018-04-20T12:03:45.413Z,37.30
2018-04-20T12:06:13.933Z,38.60
2018-04-20T12:08:42.912Z,37.70
2018-04-20T12:11:11.915Z,37.40
2018-04-20T12:13:40.154Z,37.40
2018-04-20T12:16:08.379Z,36.80
2018-04-20T12:18:36.632Z,37.90
2018-04-20T12:21:04.875Z,41.00
2018-04-20T12:23:33.108Z,37.80
2018-04-20T12:26:01.349Z,37.20
2018-04-20T12:28:30.364Z,40.90
2018-04-20T12:30:58.598Z,40.80
2018-04-20T12:33:27.624Z,38.50
2018-04-20T12:35:55.835Z,38.40
2018-04-20T12:38:24.096Z,40.40
2018-04-20T12:40:52.311Z,39.10
2018-04-20T12:43:21.327Z,40.40
2018-04-20T12:45:49.555Z,40.40
2018-04-20T12:48:17.801Z,40.00
2018-04-20T12:50:46.031Z,39.00
2018-04-20T12:53:15.416Z,38.80
2018-04-20T12:55:43.670Z,38.80
2018-04-20T12:58:11.920Z,39.90
2018-04-20T13:00:40.162Z,38.90
2018-04-20T13:03:09.162Z,39.00
2018-04-20T13:05:37.399Z,39.00
2018-04-20T13:08:05.643Z,40.20
2018-04-20T13:10:33.867Z,40.90
2018-04-20T13:13:02.887Z,37.10
2018-04-20T13:15:31.111Z,37.10
2018-04-20T13:17:59.355Z,41.10
2018-04-20T13:20:27.585Z,37.30
2018-04-20T13:22:56.589Z,38.50
2018-04-20T13:25:24.830Z,38.50
2018-04-20T13:27:53.071Z,39.70
2018-04-20T13:30:21.298Z,38.80
2018-04-20T13:32:50.323Z,38.40
2018-04-20T13:35:18.551Z,38.40
2018-04-20T13:37:47.560Z,39.00
2018-04-20T13:40:16.561Z,39.30
2018-04-20T13:42:44.814Z,39.30
2018-04-20T13:45:13.798Z,38.60
2018-04-20T13:47:42.810Z,40.50
2018-04-20T13:50:11.042Z,40.50
2018-04-20T13:52:39.292Z,38.10
2018-04-20T13:55:07.518Z,39.30
2018-04-20T13:57:36.607Z,37.80
2018-04-20T14:00:05.631Z,36.30
2018-04-20T14:02:34.620Z,38.10
2018-04-20T14:05:03.264Z,38.10
2018-04-20T14:07:31.480Z,38.50
2018-04-20T14:09:59.720Z,37.20
2018-04-20T14:12:28.737Z,37.40
2018-04-20T14:14:57.386Z,37.40
2018-04-20T14:17:25.587Z,37.60
2018-04-20T14:19:53.832Z,40.80
2018-04-20T14:22:22.066Z,39.30
2018-04-20T14:24:50.305Z,40.10
2018-04-20T14:27:18.531Z,38.10
2018-04-20T14:29:47.544Z,39.40
2018-04-20T14:32:15.778Z,39.00
2018-04-20T14:34:44.019Z,40.00
2018-04-20T14:37:13.010Z,37.40
2018-04-20T14:39:41.576Z,37.40
2018-04-20T14:42:10.562Z,39.80
2018-04-20T14:44:39.578Z,38.10
2018-04-20T14:47:07.836Z,38.00
2018-04-20T14:49:36.845Z,39.90
2018-04-20T14:52:05.077Z,39.80
2018-04-20T14:54:33.315Z,39.60
2018-04-20T14:57:01.545Z,39.60
2018-04-20T14:59:30.560Z,39.50
2018-04-20T15:01:58.784Z,39.30
2018-04-20T15:04:27.111Z,39.40
2018-04-20T15:06:55.282Z,40.60
2018-04-20T15:09:23.530Z,38.60
2018-04-20T15:11:52.531Z,40.70
2018-04-20T15:14:21.538Z,40.20
2018-04-20T15:16:49.770Z,40.10
2018-04-20T15:21:50.414Z,38.40
2018-04-20T15:24:18.798Z,40.20
2018-04-20T15:26:47.824Z,39.90
2018-04-20T15:29:16.083Z,39.90
2018-04-20T15:31:45.080Z,42.00
2018-04-20T15:34:17.807Z,42.70
2018-04-20T15:36:46.954Z,42.70
2018-04-20T15:39:15.976Z,42.20
2018-04-20T15:41:44.203Z,42.20
2018-04-20T15:44:12.453Z,43.80
2018-04-20T15:46:40.690Z,42.20
2018-04-20T15:49:09.130Z,40.80
2018-04-20T15:51:37.327Z,41.40
2018-04-20T15:54:05.892Z,40.70
2018-04-20T15:56:34.893Z,41.40
2018-04-20T15:59:03.899Z,41.20
2018-04-20T16:01:32.220Z,41.10
2018-04-20T16:04:00.485Z,43.20
2018-04-20T16:06:28.721Z,41.80
2018-04-20T16:08:56.970Z,42.10
2018-04-20T16:11:25.964Z,43.60
2018-04-20T16:13:54.979Z,42.40
2018-04-20T16:16:23.232Z,42.20
2018-04-20T16:18:52.258Z,45.10
2018-04-20T16:21:20.542Z,45.10
2018-04-20T16:23:48.974Z,42.90
2018-04-20T16:26:17.969Z,42.50
2018-04-20T16:28:47.035Z,41.90
2018-04-20T16:31:15.240Z,41.90
2018-04-20T16:33:44.245Z,42.50
2018-04-20T16:36:12.488Z,42.50
2018-04-20T16:38:40.710Z,42.50
2018-04-20T16:41:08.962Z,43.80
2018-04-20T16:43:37.955Z,42.40
2018-04-20T16:46:06.195Z,42.40
2018-04-20T16:48:34.425Z,42.30
2018-04-20T16:51:02.679Z,43.50
2018-04-20T16:53:30.954Z,44.90
2018-04-20T16:55:59.215Z,43.60
2018-04-20T16:58:28.277Z,44.10
2018-04-20T17:00:56.736Z,44.10
2018-04-20T17:03:24.942Z,43.90
2018-04-20T17:05:53.185Z,44.70
2018-04-20T17:08:21.422Z,44.10
2018-04-20T17:10:49.668Z,43.80
2018-04-20T17:13:17.904Z,45.00
2018-04-20T17:15:46.208Z,44.50
2018-04-20T17:18:14.490Z,43.80
2018-04-20T17:20:42.795Z,45.60
2018-04-20T17:23:12.500Z,46.30
2018-04-20T17:25:40.916Z,46.30
2018-04-20T17:28:09.152Z,46.90
2018-04-20T17:30:46.927Z,46.90
2018-04-20T17:33:18.502Z,46.30
2018-04-20T17:35:46.739Z,47.50
2018-04-20T17:38:15.063Z,47.70
2018-04-20T17:40:43.338Z,47.20
2018-04-20T17:43:12.408Z,47.50
2018-04-20T17:45:41.001Z,48.60
2018-04-20T17:48:09.359Z,49.20
2018-04-20T17:50:38.370Z,50.10
2018-04-20T17:53:06.840Z,50.00
2018-04-20T17:55:36.061Z,50.30
2018-04-20T17:58:04.285Z,50.20
2018-04-20T18:00:32.522Z,50.10
2018-04-20T18:03:01.728Z,50.50
2018-04-20T18:05:30.998Z,51.20
2018-04-20T18:07:59.225Z,51.20
2018-04-20T18:10:27.459Z,54.60
2018-04-20T18:12:55.683Z,56.90
2018-04-20T18:15:23.920Z,61.70
2018-04-20T18:17:52.303Z,63.80
2018-04-20T18:20:20.567Z,59.60
2018-04-20T18:22:49.562Z,57.30
2018-04-20T18:25:17.799Z,57.20
2018-04-20T18:27:46.024Z,57.50
2018-04-20T18:30:14.266Z,56.60
2018-04-20T18:32:42.495Z,56.50
2018-04-20T18:35:11.559Z,57.10
2018-04-20T18:37:39.749Z,56.40
2018-04-20T18:40:08.007Z,57.20
2018-04-20T18:42:36.240Z,57.60
2018-04-20T18:45:04.482Z,58.70
2018-04-20T18:47:33.503Z,61.60
2018-04-20T18:50:01.758Z,61.60
2018-04-20T18:52:30.763Z,63.00
2018-04-20T18:54:58.987Z,62.90
2018-04-20T18:57:27.234Z,62.00
2018-04-20T18:59:55.477Z,62.20
2018-04-20T19:02:24.486Z,62.20
2018-04-20T19:04:52.722Z,62.10
2018-04-20T19:07:20.955Z,63.70
2018-04-20T19:09:49.951Z,71.80
2018-04-20T19:12:18.204Z,71.60
2018-04-20T19:14:46.432Z,66.90
2018-04-20T19:17:14.677Z,63.90
2018-04-20T19:19:42.909Z,63.90
2018-04-20T19:22:11.162Z,66.70
2018-04-20T19:24:40.459Z,65.60
2018-04-20T19:27:08.708Z,65.60
2018-04-20T19:29:36.944Z,65.30
2018-04-20T19:32:05.187Z,65.60
2018-04-20T19:34:34.184Z,66.30
2018-04-20T19:37:03.203Z,66.80
2018-04-20T19:39:31.739Z,66.60
2018-04-20T19:41:59.950Z,67.00
2018-04-20T19:44:28.181Z,68.00
2018-04-20T19:46:56.427Z,66.90
2018-04-20T19:49:24.661Z,67.60
2018-04-20T19:51:53.760Z,68.10
2018-04-20T19:54:21.943Z,68.10
2018-04-20T19:56:50.196Z,68.50
2018-04-20T19:59:19.592Z,69.50
2018-04-20T20:01:48.601Z,70.80
2018-04-20T20:04:16.848Z,70.40
2018-04-20T20:06:45.867Z,71.10
2018-04-20T20:09:14.105Z,71.00
2018-04-20T20:11:42.358Z,71.60
2018-04-20T20:14:10.600Z,72.30
2018-04-20T20:16:38.859Z,74.00
2018-04-20T20:19:07.095Z,73.40
2018-04-20T20:21:35.347Z,73.00
2018-04-20T20:24:03.579Z,73.10
2018-04-20T20:26:31.839Z,72.10
2018-04-20T20:29:00.831Z,72.00
2018-04-20T20:31:29.847Z,71.90
2018-04-20T20:33:58.083Z,71.90
2018-04-20T20:36:27.108Z,72.40
2018-04-20T20:38:55.344Z,72.40
2018-04-20T20:41:23.590Z,72.00
2018-04-20T20:43:51.830Z,72.80
2018-04-20T20:46:20.080Z,72.90
2018-04-20T20:48:49.088Z,73.70
2018-04-20T20:51:17.341Z,73.50
2018-04-20T20:53:46.343Z,73.80
2018-04-20T20:56:15.354Z,74.10
2018-04-20T20:58:43.617Z,74.00
2018-04-20T21:01:11.852Z,74.60
2018-04-20T21:03:40.102Z,74.50
2018-04-20T21:06:08.339Z,75.00
2018-04-20T21:08:36.599Z,75.60
2018-04-20T21:11:05.612Z,74.30
2018-04-20T21:13:33.861Z,74.00
2018-04-20T21:16:02.872Z,74.70
2018-04-20T21:18:31.122Z,74.70
2018-04-20T21:21:00.153Z,76.60
2018-04-20T21:23:29.135Z,76.50
2018-04-20T21:25:57.374Z,76.40
2018-04-20T21:28:25.626Z,78.00
2018-04-20T21:30:53.868Z,79.70
2018-04-20T21:33:22.122Z,80.30
2018-04-20T21:35:51.118Z,82.30
2018-04-20T21:38:19.371Z,82.20
2018-04-20T21:40:48.368Z,83.90
2018-04-20T21:43:17.388Z,83.00
2018-04-20T21:45:45.631Z,82.90
2018-04-20T21:48:14.654Z,82.00
2018-04-20T21:50:42.894Z,82.00
2018-04-20T21:53:14.983Z,84.10
2018-04-20T21:55:43.955Z,83.20
2018-04-20T21:58:12.995Z,86.10
2018-04-20T22:00:41.217Z,86.10
2018-04-20T22:03:10.230Z,88.90
2018-04-20T22:05:38.548Z,88.80
2018-04-20T22:08:06.783Z,87.20
2018-04-20T22:10:35.032Z,86.10
2018-04-20T22:13:04.056Z,87.10
2018-04-20T22:15:32.290Z,87.00
2018-04-20T22:18:01.311Z,86.60
2018-04-20T22:20:29.963Z,86.40
2018-04-20T22:22:58.188Z,85.00
2018-04-20T22:25:26.421Z,84.70
2018-04-20T22:27:55.448Z,84.50
2018-04-20T22:30:23.681Z,84.50
2018-04-20T22:32:52.692Z,84.10
2018-04-20T22:35:20.953Z,84.10
2018-04-20T22:37:49.965Z,83.80
2018-04-20T22:40:18.216Z,83.70
2018-04-20T22:42:47.217Z,82.90
2018-04-20T22:45:16.236Z,82.70
2018-04-20T22:47:44.479Z,82.70
2018-04-20T22:50:13.494Z,82.70
2018-04-20T22:52:41.736Z,82.60
2018-04-20T22:55:09.998Z,82.80
2018-04-20T22:57:38.230Z,83.30
2018-04-20T23:00:06.482Z,83.60
2018-04-20T23:02:34.470Z,83.50
2018-04-20T23:05:02.724Z,83.50
2018-04-20T23:07:30.956Z,82.50
2018-04-20T23:09:59.219Z,81.00
2018-04-20T23:12:27.825Z,79.50
2018-04-20T23:14:56.039Z,78.10
2018-04-20T23:17:24.279Z,78.10
2018-04-20T23:19:53.295Z,78.70
2018-04-20T23:22:21.544Z,78.70
2018-04-20T23:24:50.567Z,79.70
2018-04-20T23:27:18.810Z,79.60
2018-04-20T23:29:47.819Z,80.30
2018-04-20T23:32:16.055Z,80.20
2018-04-20T23:34:44.319Z,80.40
2018-04-20T23:37:12.548Z,81.20
2018-04-20T23:39:40.802Z,81.90
2018-04-20T23:42:09.808Z,82.00
2018-04-20T23:44:38.822Z,85.00
2018-04-20T23:47:07.059Z,85.00
2018-04-20T23:49:36.083Z,85.30
2018-04-20T23:52:04.315Z,85.30
2018-04-20T23:54:32.562Z,85.50
2018-04-20T23:57:00.800Z,83.80
2018-04-20T23:59:29.055Z,84.60
